sensor_id;sensor_type;location;lat;lon;timestamp;pressure;altitude;pressure_sealevel;temperature;humidity
46412;BME280;32113;42.012;24.870;2023-06-26T00:01:28;98500.69;;;24.28;68.60
46412;BME280;32113;42.012;24.870;2023-06-26T00:03:57;98500.47;;;24.32;69.14
46412;BME280;32113;42.012;24.870;2023-06-26T00:06:24;98505.34;;;24.36;69.16
46412;BME280;32113;42.012;24.870;2023-06-26T00:08:51;98500.38;;;24.33;68.13
46412;BME280;32113;42.012;24.870;2023-06-26T00:11:18;98503.91;;;24.32;68.13
46412;BME280;32113;42.012;24.870;2023-06-26T00:13:44;98504.75;;;24.33;69.20
46412;BME280;32113;42.012;24.870;2023-06-26T00:16:09;98501.44;;;24.42;68.73
46412;BME280;32113;42.012;24.870;2023-06-26T00:18:35;98507.84;;;24.49;69.24
46412;BME280;32113;42.012;24.870;2023-06-26T00:21:00;98499.41;;;24.46;68.46
46412;BME280;32113;42.012;24.870;2023-06-26T00:23:26;98495.13;;;24.45;68.56
46412;BME280;32113;42.012;24.870;2023-06-26T00:25:52;98494.41;;;24.43;67.77
46412;BME280;32113;42.012;24.870;2023-06-26T00:28:18;98496.56;;;24.49;69.33
46412;BME280;32113;42.012;24.870;2023-06-26T00:30:43;98494.53;;;24.52;67.50
46412;BME280;32113;42.012;24.870;2023-06-26T00:33:09;98496.81;;;24.57;69.44
46412;BME280;32113;42.012;24.870;2023-06-26T00:35:34;98504.78;;;24.67;70.05
46412;BME280;32113;42.012;24.870;2023-06-26T00:38:00;98501.91;;;24.70;70.06
46412;BME280;32113;42.012;24.870;2023-06-26T00:40:26;98503.56;;;24.71;69.42
46412;BME280;32113;42.012;24.870;2023-06-26T00:42:52;98500.84;;;24.61;70.33
46412;BME280;32113;42.012;24.870;2023-06-26T00:45:18;98503.13;;;24.54;71.67
46412;BME280;32113;42.012;24.870;2023-06-26T00:47:43;98505.13;;;24.51;72.20
46412;BME280;32113;42.012;24.870;2023-06-26T00:50:09;98508.94;;;24.47;71.58
46412;BME280;32113;42.012;24.870;2023-06-26T00:52:35;98502.25;;;24.31;72.08
46412;BME280;32113;42.012;24.870;2023-06-26T00:55:01;98508.41;;;24.19;72.72
46412;BME280;32113;42.012;24.870;2023-06-26T00:57:27;98497.19;;;24.05;72.56
46412;BME280;32113;42.012;24.870;2023-06-26T00:59:52;98507.59;;;23.82;74.00
46412;BME280;32113;42.012;24.870;2023-06-26T01:02:18;98510.22;;;23.82;75.64
46412;BME280;32113;42.012;24.870;2023-06-26T01:04:49;98503.56;;;23.89;75.91
46412;BME280;32113;42.012;24.870;2023-06-26T01:07:15;98514.41;;;23.85;75.46
46412;BME280;32113;42.012;24.870;2023-06-26T01:09:45;98509.19;;;23.60;75.23
46412;BME280;32113;42.012;24.870;2023-06-26T01:12:11;98510.06;;;23.48;75.14
46412;BME280;32113;42.012;24.870;2023-06-26T01:14:36;98512.09;;;23.31;77.19
46412;BME280;32113;42.012;24.870;2023-06-26T01:17:03;98513.31;;;23.14;77.69
46412;BME280;32113;42.012;24.870;2023-06-26T01:19:30;98508.25;;;23.24;77.93
46412;BME280;32113;42.012;24.870;2023-06-26T01:22:04;98505.78;;;23.09;78.07
46412;BME280;32113;42.012;24.870;2023-06-26T01:27:36;98498.63;;;22.87;80.52
46412;BME280;32113;42.012;24.870;2023-06-26T01:30:03;98497.81;;;22.74;80.92
46412;BME280;32113;42.012;24.870;2023-06-26T01:32:31;98503.78;;;22.63;80.85
46412;BME280;32113;42.012;24.870;2023-06-26T01:34:57;98503.50;;;22.54;81.74
46412;BME280;32113;42.012;24.870;2023-06-26T01:37:23;98501.41;;;22.60;81.60
46412;BME280;32113;42.012;24.870;2023-06-26T01:39:48;98497.00;;;22.60;82.54
46412;BME280;32113;42.012;24.870;2023-06-26T01:42:14;98483.63;;;22.65;82.85
46412;BME280;32113;42.012;24.870;2023-06-26T01:44:44;98486.94;;;22.80;81.66
46412;BME280;32113;42.012;24.870;2023-06-26T01:47:12;98484.03;;;22.72;80.73
46412;BME280;32113;42.012;24.870;2023-06-26T01:50:01;98484.94;;;22.83;81.12
46412;BME280;32113;42.012;24.870;2023-06-26T01:58:01;98487.75;;;22.80;80.82
46412;BME280;32113;42.012;24.870;2023-06-26T02:00:27;98493.00;;;22.80;80.90
46412;BME280;32113;42.012;24.870;2023-06-26T02:02:53;98486.09;;;22.79;80.41
46412;BME280;32113;42.012;24.870;2023-06-26T02:05:18;98489.66;;;22.78;80.55
46412;BME280;32113;42.012;24.870;2023-06-26T02:07:44;98488.63;;;22.81;80.44
46412;BME280;32113;42.012;24.870;2023-06-26T02:10:09;98493.00;;;22.80;80.94
46412;BME280;32113;42.012;24.870;2023-06-26T02:12:36;98496.13;;;22.86;80.40
46412;BME280;32113;42.012;24.870;2023-06-26T02:15:03;98486.06;;;22.92;80.46
46412;BME280;32113;42.012;24.870;2023-06-26T02:17:29;98490.88;;;22.86;79.62
46412;BME280;32113;42.012;24.870;2023-06-26T02:19:54;98489.63;;;22.91;79.77
46412;BME280;32113;42.012;24.870;2023-06-26T02:22:20;98494.66;;;22.94;79.13
46412;BME280;32113;42.012;24.870;2023-06-26T02:24:45;98478.00;;;22.95;80.23
46412;BME280;32113;42.012;24.870;2023-06-26T02:27:11;98489.06;;;22.99;79.20
46412;BME280;32113;42.012;24.870;2023-06-26T02:29:37;98483.00;;;22.99;79.11
46412;BME280;32113;42.012;24.870;2023-06-26T02:32:03;98486.75;;;23.07;78.09
46412;BME280;32113;42.012;24.870;2023-06-26T02:34:28;98488.09;;;23.13;76.61
46412;BME280;32113;42.012;24.870;2023-06-26T02:36:55;98490.78;;;23.25;76.62
46412;BME280;32113;42.012;24.870;2023-06-26T02:39:21;98485.09;;;23.31;76.97
46412;BME280;32113;42.012;24.870;2023-06-26T02:41:47;98485.78;;;23.46;75.61
46412;BME280;32113;42.012;24.870;2023-06-26T02:44:12;98491.31;;;23.54;74.52
46412;BME280;32113;42.012;24.870;2023-06-26T02:46:39;98482.47;;;23.31;75.03
46412;BME280;32113;42.012;24.870;2023-06-26T02:49:05;98491.84;;;23.22;75.33
46412;BME280;32113;42.012;24.870;2023-06-26T02:51:32;98477.59;;;23.26;76.08
46412;BME280;32113;42.012;24.870;2023-06-26T02:53:58;98477.09;;;23.21;75.49
46412;BME280;32113;42.012;24.870;2023-06-26T02:56:23;98488.97;;;23.01;76.35
46412;BME280;32113;42.012;24.870;2023-06-26T02:58:48;98490.19;;;22.83;78.15
46412;BME280;32113;42.012;24.870;2023-06-26T03:01:14;98491.97;;;22.70;79.24
46412;BME280;32113;42.012;24.870;2023-06-26T03:03:41;98481.72;;;22.80;77.86
46412;BME280;32113;42.012;24.870;2023-06-26T03:06:07;98498.13;;;22.82;78.29
46412;BME280;32113;42.012;24.870;2023-06-26T03:08:36;98502.50;;;22.94;78.04
46412;BME280;32113;42.012;24.870;2023-06-26T03:11:02;98501.59;;;22.82;77.97
46412;BME280;32113;42.012;24.870;2023-06-26T03:13:27;98498.63;;;22.87;78.93
46412;BME280;32113;42.012;24.870;2023-06-26T03:15:52;98497.38;;;22.93;78.26
46412;BME280;32113;42.012;24.870;2023-06-26T03:18:18;98502.78;;;23.03;77.27
46412;BME280;32113;42.012;24.870;2023-06-26T03:20:43;98503.41;;;23.06;77.71
46412;BME280;32113;42.012;24.870;2023-06-26T03:23:09;98502.25;;;23.10;76.70
46412;BME280;32113;42.012;24.870;2023-06-26T03:25:34;98503.00;;;23.00;75.79
46412;BME280;32113;42.012;24.870;2023-06-26T03:28:00;98503.63;;;23.03;76.57
46412;BME280;32113;42.012;24.870;2023-06-26T03:30:25;98504.63;;;23.14;76.53
46412;BME280;32113;42.012;24.870;2023-06-26T03:32:50;98505.53;;;23.01;76.06
46412;BME280;32113;42.012;24.870;2023-06-26T03:35:16;98502.25;;;22.97;77.46
46412;BME280;32113;42.012;24.870;2023-06-26T03:37:41;98510.22;;;22.96;77.44
46412;BME280;32113;42.012;24.870;2023-06-26T03:40:07;98503.63;;;23.03;78.22
46412;BME280;32113;42.012;24.870;2023-06-26T03:42:33;98506.53;;;23.12;79.23
46412;BME280;32113;42.012;24.870;2023-06-26T03:44:58;98501.69;;;23.18;76.94
46412;BME280;32113;42.012;24.870;2023-06-26T03:47:24;98509.69;;;23.28;74.84
46412;BME280;32113;42.012;24.870;2023-06-26T03:49:49;98499.56;;;23.36;73.51
46412;BME280;32113;42.012;24.870;2023-06-26T03:52:14;98487.84;;;23.54;73.01
46412;BME280;32113;42.012;24.870;2023-06-26T03:54:40;98499.66;;;23.59;71.74
46412;BME280;32113;42.012;24.870;2023-06-26T03:57:06;98495.19;;;23.73;71.46
46412;BME280;32113;42.012;24.870;2023-06-26T03:59:32;98492.72;;;23.83;69.93
46412;BME280;32113;42.012;24.870;2023-06-26T04:01:57;98494.63;;;23.81;69.58
46412;BME280;32113;42.012;24.870;2023-06-26T04:04:22;98489.75;;;23.87;68.96
46412;BME280;32113;42.012;24.870;2023-06-26T04:06:48;98485.13;;;23.91;68.55
46412;BME280;32113;42.012;24.870;2023-06-26T04:09:13;98494.78;;;24.02;68.48
46412;BME280;32113;42.012;24.870;2023-06-26T04:11:38;98495.28;;;24.07;68.42
46412;BME280;32113;42.012;24.870;2023-06-26T04:14:04;98491.13;;;24.16;68.10
46412;BME280;32113;42.012;24.870;2023-06-26T04:16:29;98484.13;;;24.17;67.25
46412;BME280;32113;42.012;24.870;2023-06-26T04:18:55;98488.41;;;24.18;67.68
46412;BME280;32113;42.012;24.870;2023-06-26T04:21:22;98490.69;;;24.22;67.87
46412;BME280;32113;42.012;24.870;2023-06-26T04:23:50;98490.44;;;24.25;66.98
46412;BME280;32113;42.012;24.870;2023-06-26T04:26:16;98483.19;;;24.29;66.13
46412;BME280;32113;42.012;24.870;2023-06-26T04:28:42;98488.88;;;24.23;65.34
46412;BME280;32113;42.012;24.870;2023-06-26T04:31:08;98487.72;;;24.27;64.65
46412;BME280;32113;42.012;24.870;2023-06-26T04:33:34;98490.94;;;24.31;64.98
46412;BME280;32113;42.012;24.870;2023-06-26T04:36:02;98492.34;;;24.35;64.49
46412;BME280;32113;42.012;24.870;2023-06-26T04:38:28;98498.56;;;24.34;64.01
46412;BME280;32113;42.012;24.870;2023-06-26T04:40:54;98489.25;;;24.30;63.63
46412;BME280;32113;42.012;24.870;2023-06-26T04:43:19;98494.41;;;24.43;65.23
46412;BME280;32113;42.012;24.870;2023-06-26T04:45:45;98496.06;;;24.55;67.31
46412;BME280;32113;42.012;24.870;2023-06-26T04:48:10;98496.31;;;24.63;67.00
46412;BME280;32113;42.012;24.870;2023-06-26T04:50:35;98496.09;;;24.66;67.73
46412;BME280;32113;42.012;24.870;2023-06-26T04:53:01;98494.75;;;24.61;65.74
46412;BME280;32113;42.012;24.870;2023-06-26T04:55:27;98490.69;;;24.68;66.32
46412;BME280;32113;42.012;24.870;2023-06-26T04:57:53;98511.69;;;24.68;66.56
46412;BME280;32113;42.012;24.870;2023-06-26T05:00:19;98500.72;;;24.63;66.34
46412;BME280;32113;42.012;24.870;2023-06-26T05:02:45;98498.00;;;24.53;63.54
46412;BME280;32113;42.012;24.870;2023-06-26T05:05:10;98509.19;;;24.55;64.66
46412;BME280;32113;42.012;24.870;2023-06-26T05:07:37;98513.59;;;24.54;64.76
46412;BME280;32113;42.012;24.870;2023-06-26T05:10:03;98512.28;;;24.60;63.85
46412;BME280;32113;42.012;24.870;2023-06-26T05:12:28;98521.34;;;24.67;63.16
46412;BME280;32113;42.012;24.870;2023-06-26T05:14:53;98511.34;;;24.73;62.56
46412;BME280;32113;42.012;24.870;2023-06-26T05:17:19;98518.59;;;24.80;62.81
46412;BME280;32113;42.012;24.870;2023-06-26T05:19:44;98511.69;;;24.91;62.95
46412;BME280;32113;42.012;24.870;2023-06-26T05:22:10;98516.34;;;25.10;62.11
46412;BME280;32113;42.012;24.870;2023-06-26T05:24:37;98511.16;;;25.31;62.20
46412;BME280;32113;42.012;24.870;2023-06-26T05:27:04;98518.69;;;25.25;60.78
46412;BME280;32113;42.012;24.870;2023-06-26T05:29:33;98515.56;;;25.31;61.01
46412;BME280;32113;42.012;24.870;2023-06-26T05:31:59;98517.38;;;25.30;60.23
46412;BME280;32113;42.012;24.870;2023-06-26T05:34:25;98521.34;;;25.13;60.57
46412;BME280;32113;42.012;24.870;2023-06-26T05:36:57;98532.88;;;25.22;61.76
46412;BME280;32113;42.012;24.870;2023-06-26T05:39:23;98531.09;;;25.23;62.36
46412;BME280;32113;42.012;24.870;2023-06-26T05:41:49;98540.66;;;25.24;62.74
46412;BME280;32113;42.012;24.870;2023-06-26T05:44:15;98532.50;;;25.27;62.53
46412;BME280;32113;42.012;24.870;2023-06-26T05:46:40;98531.31;;;25.31;62.15
46412;BME280;32113;42.012;24.870;2023-06-26T05:49:06;98534.91;;;25.30;61.75
46412;BME280;32113;42.012;24.870;2023-06-26T05:51:31;98536.63;;;25.52;62.56
46412;BME280;32113;42.012;24.870;2023-06-26T05:53:57;98535.91;;;25.62;61.03
46412;BME280;32113;42.012;24.870;2023-06-26T05:56:23;98527.66;;;25.66;60.60
46412;BME280;32113;42.012;24.870;2023-06-26T05:58:49;98532.03;;;25.77;61.12
46412;BME280;32113;42.012;24.870;2023-06-26T06:01:15;98537.22;;;25.89;61.45
46412;BME280;32113;42.012;24.870;2023-06-26T06:03:41;98532.31;;;25.95;60.13
46412;BME280;32113;42.012;24.870;2023-06-26T06:06:06;98532.38;;;25.84;59.82
46412;BME280;32113;42.012;24.870;2023-06-26T06:08:32;98537.09;;;25.90;58.94
46412;BME280;32113;42.012;24.870;2023-06-26T06:10:59;98536.00;;;25.93;59.85
46412;BME280;32113;42.012;24.870;2023-06-26T06:13:25;98541.38;;;25.91;59.66
46412;BME280;32113;42.012;24.870;2023-06-26T06:15:50;98535.81;;;25.84;59.18
46412;BME280;32113;42.012;24.870;2023-06-26T06:18:16;98540.53;;;25.91;60.29
46412;BME280;32113;42.012;24.870;2023-06-26T06:20:41;98540.31;;;25.94;59.27
46412;BME280;32113;42.012;24.870;2023-06-26T06:23:06;98550.00;;;25.93;59.50
46412;BME280;32113;42.012;24.870;2023-06-26T06:25:32;98547.63;;;25.90;58.94
46412;BME280;32113;42.012;24.870;2023-06-26T06:27:57;98538.56;;;25.83;58.18
46412;BME280;32113;42.012;24.870;2023-06-26T06:30:23;98541.00;;;25.75;59.16
46412;BME280;32113;42.012;24.870;2023-06-26T06:32:48;98542.66;;;25.76;59.17
46412;BME280;32113;42.012;24.870;2023-06-26T06:35:19;98540.72;;;25.78;59.13
46412;BME280;32113;42.012;24.870;2023-06-26T06:37:44;98544.03;;;25.91;59.06
46412;BME280;32113;42.012;24.870;2023-06-26T06:40:10;98546.97;;;25.98;60.24
46412;BME280;32113;42.012;24.870;2023-06-26T06:42:36;98543.38;;;25.99;59.60
46412;BME280;32113;42.012;24.870;2023-06-26T06:45:05;98546.59;;;26.03;59.79
46412;BME280;32113;42.012;24.870;2023-06-26T06:47:34;98553.25;;;26.07;60.02
46412;BME280;32113;42.012;24.870;2023-06-26T06:50:00;98546.53;;;26.14;60.12
46412;BME280;32113;42.012;24.870;2023-06-26T06:52:39;98552.97;;;26.21;59.15
46412;BME280;32113;42.012;24.870;2023-06-26T06:55:06;98554.41;;;26.14;57.73
46412;BME280;32113;42.012;24.870;2023-06-26T06:57:35;98552.31;;;26.08;57.84
46412;BME280;32113;42.012;24.870;2023-06-26T07:00:07;98553.44;;;26.15;57.91
46412;BME280;32113;42.012;24.870;2023-06-26T07:02:37;98556.19;;;26.14;58.35
46412;BME280;32113;42.012;24.870;2023-06-26T07:05:03;98558.47;;;26.18;58.30
46412;BME280;32113;42.012;24.870;2023-06-26T07:07:30;98554.75;;;26.21;58.60
46412;BME280;32113;42.012;24.870;2023-06-26T07:09:58;98554.75;;;26.21;59.18
46412;BME280;32113;42.012;24.870;2023-06-26T07:12:24;98558.16;;;26.33;58.70
46412;BME280;32113;42.012;24.870;2023-06-26T07:14:49;98561.03;;;26.30;58.19
46412;BME280;32113;42.012;24.870;2023-06-26T07:17:15;98554.56;;;26.34;58.64
46412;BME280;32113;42.012;24.870;2023-06-26T07:19:40;98558.94;;;26.45;58.38
46412;BME280;32113;42.012;24.870;2023-06-26T07:22:05;98563.28;;;26.56;59.56
46412;BME280;32113;42.012;24.870;2023-06-26T07:24:31;98559.06;;;26.74;58.11
46412;BME280;32113;42.012;24.870;2023-06-26T07:26:57;98553.31;;;26.91;56.76
46412;BME280;32113;42.012;24.870;2023-06-26T07:29:23;98556.72;;;27.02;56.53
46412;BME280;32113;42.012;24.870;2023-06-26T07:31:48;98543.47;;;27.34;55.67
46412;BME280;32113;42.012;24.870;2023-06-26T07:34:14;98547.84;;;27.74;55.73
46412;BME280;32113;42.012;24.870;2023-06-26T07:36:39;98542.97;;;27.99;52.56
46412;BME280;32113;42.012;24.870;2023-06-26T07:39:04;98547.50;;;28.17;53.29
46412;BME280;32113;42.012;24.870;2023-06-26T07:41:30;98539.59;;;28.37;52.70
46412;BME280;32113;42.012;24.870;2023-06-26T07:43:57;98548.53;;;28.64;51.83
46412;BME280;32113;42.012;24.870;2023-06-26T07:46:23;98551.69;;;28.77;49.57
46412;BME280;32113;42.012;24.870;2023-06-26T07:48:49;98551.69;;;28.67;48.90
46412;BME280;32113;42.012;24.870;2023-06-26T07:51:14;98551.84;;;28.66;49.53
46412;BME280;32113;42.012;24.870;2023-06-26T07:53:39;98548.13;;;28.58;49.27
46412;BME280;32113;42.012;24.870;2023-06-26T07:56:05;98545.25;;;28.52;49.58
46412;BME280;32113;42.012;24.870;2023-06-26T07:58:30;98550.53;;;28.52;48.39
46412;BME280;32113;42.012;24.870;2023-06-26T08:00:56;98547.19;;;28.50;48.97
46412;BME280;32113;42.012;24.870;2023-06-26T08:03:21;98551.50;;;28.51;49.78
46412;BME280;32113;42.012;24.870;2023-06-26T08:05:47;98553.75;;;28.45;48.64
46412;BME280;32113;42.012;24.870;2023-06-26T08:08:12;98558.31;;;28.43;49.70
46412;BME280;32113;42.012;24.870;2023-06-26T08:10:37;98556.31;;;28.55;50.59
46412;BME280;32113;42.012;24.870;2023-06-26T08:13:03;98558.81;;;28.67;51.38
46412;BME280;32113;42.012;24.870;2023-06-26T08:15:28;98559.47;;;28.69;49.04
46412;BME280;32113;42.012;24.870;2023-06-26T08:17:53;98560.06;;;28.63;48.84
46412;BME280;32113;42.012;24.870;2023-06-26T08:20:19;98564.72;;;28.41;49.33
46412;BME280;32113;42.012;24.870;2023-06-26T08:22:45;98563.19;;;28.38;50.77
46412;BME280;32113;42.012;24.870;2023-06-26T08:25:13;98557.06;;;28.38;49.44
46412;BME280;32113;42.012;24.870;2023-06-26T08:27:38;98557.38;;;28.25;49.59
46412;BME280;32113;42.012;24.870;2023-06-26T08:30:04;98544.19;;;28.25;49.15
46412;BME280;32113;42.012;24.870;2023-06-26T08:32:30;98549.34;;;28.26;49.98
46412;BME280;32113;42.012;24.870;2023-06-26T08:34:56;98545.25;;;28.42;48.86
46412;BME280;32113;42.012;24.870;2023-06-26T08:37:22;98539.81;;;28.53;49.64
46412;BME280;32113;42.012;24.870;2023-06-26T08:39:48;98544.44;;;28.79;49.58
46412;BME280;32113;42.012;24.870;2023-06-26T08:42:14;98546.56;;;29.04;49.22
46412;BME280;32113;42.012;24.870;2023-06-26T08:44:39;98537.91;;;29.11;49.12
46412;BME280;32113;42.012;24.870;2023-06-26T08:47:05;98541.53;;;29.10;46.87
46412;BME280;32113;42.012;24.870;2023-06-26T08:49:47;98546.56;;;29.04;47.32
46412;BME280;32113;42.012;24.870;2023-06-26T08:52:30;98551.63;;;28.97;46.80
46412;BME280;32113;42.012;24.870;2023-06-26T08:54:58;98548.06;;;28.78;48.59
46412;BME280;32113;42.012;24.870;2023-06-26T08:57:26;98557.97;;;28.66;49.92
46412;BME280;32113;42.012;24.870;2023-06-26T08:59:52;98571.75;;;28.60;54.56
46412;BME280;32113;42.012;24.870;2023-06-26T09:02:18;98576.50;;;28.37;58.56
46412;BME280;32113;42.012;24.870;2023-06-26T09:04:43;98572.94;;;28.08;60.13
46412;BME280;32113;42.012;24.870;2023-06-26T09:07:09;98567.78;;;27.97;61.49
46412;BME280;32113;42.012;24.870;2023-06-26T09:09:35;98575.72;;;27.77;62.24
46412;BME280;32113;42.012;24.870;2023-06-26T09:12:04;98568.31;;;27.41;65.32
46412;BME280;32113;42.012;24.870;2023-06-26T09:14:30;98570.56;;;26.73;71.60
46412;BME280;32113;42.012;24.870;2023-06-26T09:16:55;98574.91;;;26.53;73.33
46412;BME280;32113;42.012;24.870;2023-06-26T09:19:20;98555.59;;;26.21;75.20
46412;BME280;32113;42.012;24.870;2023-06-26T09:21:49;98554.16;;;25.96;76.31
46412;BME280;32113;42.012;24.870;2023-06-26T09:24:14;98556.19;;;25.92;78.06
46412;BME280;32113;42.012;24.870;2023-06-26T09:26:41;98555.81;;;25.97;78.47
46412;BME280;32113;42.012;24.870;2023-06-26T09:29:07;98558.72;;;26.15;81.21
46412;BME280;32113;42.012;24.870;2023-06-26T09:31:33;98562.22;;;26.37;82.30
46412;BME280;32113;42.012;24.870;2023-06-26T09:33:59;98563.72;;;26.61;80.86
46412;BME280;32113;42.012;24.870;2023-06-26T09:36:28;98559.44;;;26.70;79.82
46412;BME280;32113;42.012;24.870;2023-06-26T09:38:54;98563.38;;;26.75;78.87
46412;BME280;32113;42.012;24.870;2023-06-26T09:41:20;98564.34;;;26.74;77.18
46412;BME280;32113;42.012;24.870;2023-06-26T09:43:50;98560.31;;;26.70;77.00
46412;BME280;32113;42.012;24.870;2023-06-26T09:46:26;98564.06;;;26.77;76.77
46412;BME280;32113;42.012;24.870;2023-06-26T09:51:33;98554.25;;;26.80;75.33
46412;BME280;32113;42.012;24.870;2023-06-26T09:54:03;98560.59;;;26.77;74.38
46412;BME280;32113;42.012;24.870;2023-06-26T09:56:29;98551.00;;;26.66;74.37
46412;BME280;32113;42.012;24.870;2023-06-26T09:58:57;98549.28;;;26.55;74.99
46412;BME280;32113;42.012;24.870;2023-06-26T10:01:25;98549.34;;;26.65;75.27
46412;BME280;32113;42.012;24.870;2023-06-26T10:03:51;98548.47;;;26.55;73.91
46412;BME280;32113;42.012;24.870;2023-06-26T10:06:24;98549.06;;;26.68;75.17
46412;BME280;32113;42.012;24.870;2023-06-26T10:08:52;98539.81;;;27.15;72.73
46412;BME280;32113;42.012;24.870;2023-06-26T10:11:19;98538.63;;;27.49;71.52
46412;BME280;32113;42.012;24.870;2023-06-26T10:13:48;98532.03;;;27.74;72.20
46412;BME280;32113;42.012;24.870;2023-06-26T10:16:19;98533.53;;;28.06;72.22
46412;BME280;32113;42.012;24.870;2023-06-26T10:18:48;98530.22;;;27.94;69.24
46412;BME280;32113;42.012;24.870;2023-06-26T10:21:16;98530.91;;;27.87;69.15
46412;BME280;32113;42.012;24.870;2023-06-26T10:23:44;98544.94;;;27.77;69.06
46412;BME280;32113;42.012;24.870;2023-06-26T10:26:09;98573.78;;;27.89;76.65
46412;BME280;32113;42.012;24.870;2023-06-26T10:28:37;98567.09;;;27.65;63.29
46412;BME280;32113;42.012;24.870;2023-06-26T10:31:04;98573.03;;;27.57;62.07
46412;BME280;32113;42.012;24.870;2023-06-26T10:33:32;98572.31;;;27.55;63.70
46412;BME280;32113;42.012;24.870;2023-06-26T10:36:18;98569.41;;;27.48;64.43
46412;BME280;32113;42.012;24.870;2023-06-26T10:39:06;98556.25;;;27.38;67.34
46412;BME280;32113;42.012;24.870;2023-06-26T10:41:39;98553.47;;;27.40;71.03
46412;BME280;32113;42.012;24.870;2023-06-26T10:44:09;98553.19;;;27.33;70.35
46412;BME280;32113;42.012;24.870;2023-06-26T10:46:51;98554.97;;;27.23;70.75
46412;BME280;32113;42.012;24.870;2023-06-26T10:49:18;98555.03;;;27.01;67.63
46412;BME280;32113;42.012;24.870;2023-06-26T10:51:49;98554.25;;;26.89;70.72
46412;BME280;32113;42.012;24.870;2023-06-26T10:54:19;98544.41;;;26.82;71.31
46412;BME280;32113;42.012;24.870;2023-06-26T10:56:54;98541.75;;;26.72;71.08
46412;BME280;32113;42.012;24.870;2023-06-26T10:59:27;98539.78;;;26.64;72.55
46412;BME280;32113;42.012;24.870;2023-06-26T11:01:59;98531.63;;;26.67;72.88
46412;BME280;32113;42.012;24.870;2023-06-26T11:04:44;98527.50;;;26.74;70.93
46412;BME280;32113;42.012;24.870;2023-06-26T11:07:16;98526.00;;;26.82;69.10
46412;BME280;32113;42.012;24.870;2023-06-26T11:12:43;98523.78;;;27.18;70.65
46412;BME280;32113;42.012;24.870;2023-06-26T11:15:13;98519.06;;;27.41;68.39
46412;BME280;32113;42.012;24.870;2023-06-26T11:17:39;98520.22;;;27.59;68.43
46412;BME280;32113;42.012;24.870;2023-06-26T11:20:13;98514.00;;;27.79;66.71
46412;BME280;32113;42.012;24.870;2023-06-26T11:22:40;98514.66;;;27.91;65.89
46412;BME280;32113;42.012;24.870;2023-06-26T11:25:07;98504.78;;;28.03;62.59
46412;BME280;32113;42.012;24.870;2023-06-26T11:27:42;98504.94;;;28.12;62.73
46412;BME280;32113;42.012;24.870;2023-06-26T11:30:10;98491.72;;;28.31;62.22
46412;BME280;32113;42.012;24.870;2023-06-26T11:32:39;98494.09;;;28.63;61.98
46412;BME280;32113;42.012;24.870;2023-06-26T11:35:05;98490.22;;;28.85;56.49
46412;BME280;32113;42.012;24.870;2023-06-26T11:37:32;98489.34;;;29.04;57.48
46412;BME280;32113;42.012;24.870;2023-06-26T11:39:57;98490.09;;;29.15;53.86
46412;BME280;32113;42.012;24.870;2023-06-26T11:42:23;98491.88;;;29.32;53.35
46412;BME280;32113;42.012;24.870;2023-06-26T11:44:49;98487.06;;;29.46;51.00
46412;BME280;32113;42.012;24.870;2023-06-26T11:47:16;98481.97;;;29.62;51.33
46412;BME280;32113;42.012;24.870;2023-06-26T11:49:46;98485.41;;;29.81;51.46
46412;BME280;32113;42.012;24.870;2023-06-26T11:52:13;98479.63;;;30.04;51.97
46412;BME280;32113;42.012;24.870;2023-06-26T11:54:39;98484.19;;;30.20;52.28
46412;BME280;32113;42.012;24.870;2023-06-26T11:57:04;98481.13;;;30.33;49.74
46412;BME280;32113;42.012;24.870;2023-06-26T11:59:35;98480.22;;;30.51;51.19
46412;BME280;32113;42.012;24.870;2023-06-26T12:02:04;98475.97;;;30.66;50.49
46412;BME280;32113;42.012;24.870;2023-06-26T12:04:30;98472.78;;;30.89;50.09
46412;BME280;32113;42.012;24.870;2023-06-26T12:06:55;98475.44;;;30.98;48.69
46412;BME280;32113;42.012;24.870;2023-06-26T12:09:25;98464.38;;;31.11;51.49
46412;BME280;32113;42.012;24.870;2023-06-26T12:11:54;98462.00;;;30.99;47.81
46412;BME280;32113;42.012;24.870;2023-06-26T12:14:20;98477.56;;;30.86;48.41
46412;BME280;32113;42.012;24.870;2023-06-26T12:16:47;98475.97;;;30.66;48.68
46412;BME280;32113;42.012;24.870;2023-06-26T12:19:13;98476.78;;;30.59;49.13
46412;BME280;32113;42.012;24.870;2023-06-26T12:24:13;98488.06;;;30.34;48.81
46412;BME280;32113;42.012;24.870;2023-06-26T12:26:42;98494.94;;;30.19;48.63
46412;BME280;32113;42.012;24.870;2023-06-26T12:29:19;98504.75;;;30.08;49.57
46412;BME280;32113;42.012;24.870;2023-06-26T12:31:51;98513.41;;;29.92;47.45
46412;BME280;32113;42.012;24.870;2023-06-26T12:34:21;98512.47;;;29.75;48.15
46412;BME280;32113;42.012;24.870;2023-06-26T12:36:50;98513.81;;;29.61;48.02
46412;BME280;32113;42.012;24.870;2023-06-26T12:39:20;98513.19;;;29.49;48.95
46412;BME280;32113;42.012;24.870;2023-06-26T12:41:55;98519.84;;;29.35;52.95
46412;BME280;32113;42.012;24.870;2023-06-26T12:44:23;98530.91;;;29.20;54.83
46412;BME280;32113;42.012;24.870;2023-06-26T12:46:54;98545.31;;;28.70;57.45
46412;BME280;32113;42.012;24.870;2023-06-26T12:49:19;98552.09;;;28.35;58.05
46412;BME280;32113;42.012;24.870;2023-06-26T12:51:45;98557.69;;;27.92;60.08
46412;BME280;32113;42.012;24.870;2023-06-26T12:54:11;98560.19;;;27.84;59.47
46412;BME280;32113;42.012;24.870;2023-06-26T12:56:36;98559.88;;;27.67;60.00
46412;BME280;32113;42.012;24.870;2023-06-26T12:59:02;98572.22;;;26.74;62.54
46412;BME280;32113;42.012;24.870;2023-06-26T13:01:27;98568.00;;;26.62;63.52
46412;BME280;32113;42.012;24.870;2023-06-26T13:03:53;98582.56;;;26.23;64.89
46412;BME280;32113;42.012;24.870;2023-06-26T13:06:19;98572.41;;;25.97;67.07